createdAt,value
2023-03-07T00:04:00.314Z,25.30
2023-03-07T00:10:02.230Z,25.47
2023-03-07T00:16:07.792Z,27.73
2023-03-07T00:22:13.059Z,25.17
2023-03-07T00:28:16.366Z,27.33
2023-03-07T00:34:18.237Z,25.40
2023-03-07T00:40:20.213Z,28.10
2023-03-07T00:46:24.721Z,23.73
2023-03-07T00:52:26.571Z,23.50
2023-03-07T00:58:31.923Z,24.00
2023-03-07T01:04:33.791Z,22.67
2023-03-07T01:10:35.963Z,26.77
2023-03-07T01:16:38.685Z,20.43
2023-03-07T01:22:40.680Z,24.30
2023-03-07T01:28:43.523Z,23.80
2023-03-07T01:34:45.421Z,22.97
2023-03-07T01:40:47.332Z,22.10
2023-03-07T01:46:56.636Z,19.60
2023-03-07T01:53:00.363Z,20.27
2023-03-07T01:59:02.484Z,25.57
2023-03-07T02:05:41.130Z,23.73
2023-03-07T02:11:44.982Z,28.40
2023-03-07T02:17:47.766Z,30.40
2023-03-07T02:24:22.449Z,22.97
2023-03-07T02:30:24.606Z,25.00
2023-03-07T02:36:34.596Z,24.97
2023-03-07T02:42:41.872Z,24.43
2023-03-07T02:48:43.727Z,24.47
2023-03-07T02:54:45.611Z,26.87
2023-03-07T03:00:47.637Z,26.90
2023-03-07T03:06:53.650Z,27.23
2023-03-07T03:12:55.544Z,26.60
2023-03-07T03:18:57.548Z,26.40
2023-03-07T03:24:59.425Z,27.73
2023-03-07T03:31:04.871Z,28.20
2023-03-07T03:37:07.881Z,37.97
2023-03-07T03:43:09.735Z,30.10
2023-03-07T03:49:16.736Z,28.20
2023-03-07T03:55:18.665Z,31.03
2023-03-07T04:01:24.051Z,29.70
2023-03-07T04:07:29.052Z,34.73
2023-03-07T04:13:32.611Z,28.67
2023-03-07T04:19:34.483Z,24.63
2023-03-07T04:25:36.428Z,23.23
2023-03-07T04:31:38.329Z,23.43
2023-03-07T04:37:40.185Z,22.30
2023-03-07T04:43:42.300Z,22.37
2023-03-07T04:49:44.202Z,22.67
2023-03-07T04:55:46.182Z,21.73
2023-03-07T05:01:48.040Z,25.23
2023-03-07T05:07:49.919Z,21.33
2023-03-07T05:13:51.850Z,15.70
2023-03-07T05:19:56.305Z,19.93
2023-03-07T05:25:58.197Z,20.00
2023-03-07T05:32:01.535Z,14.93
2023-03-07T05:38:03.468Z,13.43
2023-03-07T05:44:05.620Z,15.80
2023-03-07T05:50:09.188Z,12.47
2023-03-07T05:56:11.079Z,13.50
2023-03-07T06:02:13.171Z,14.40
2023-03-07T06:08:15.050Z,12.40
2023-03-07T06:14:16.998Z,12.23
2023-03-07T06:20:20.831Z,14.30
2023-03-07T06:26:22.779Z,11.13
2023-03-07T06:32:24.724Z,13.70
2023-03-07T06:38:27.896Z,12.13
2023-03-07T06:44:29.873Z,11.50
2023-03-07T06:50:35.554Z,14.93
2023-03-07T06:56:37.700Z,8.07
2023-03-07T07:02:39.753Z,9.60
2023-03-07T07:08:41.670Z,9.50
2023-03-07T07:14:43.534Z,9.80
2023-03-07T07:20:45.467Z,10.50
2023-03-07T07:26:47.413Z,10.20
2023-03-07T07:32:49.410Z,9.30
2023-03-07T07:38:51.391Z,9.23
2023-03-07T07:44:53.286Z,7.80
2023-03-07T07:50:55.132Z,8.40
2023-03-07T07:56:58.172Z,9.30
2023-03-07T08:03:00.968Z,8.93
2023-03-07T08:09:05.403Z,7.97
2023-03-07T08:15:08.116Z,9.73
2023-03-07T08:21:10.279Z,9.00
2023-03-07T08:27:12.211Z,10.80
2023-03-07T08:33:14.364Z,8.67
2023-03-07T08:39:16.255Z,8.33
2023-03-07T08:45:18.350Z,11.23
2023-03-07T08:51:20.228Z,11.03
2023-03-07T08:57:22.101Z,8.70
2023-03-07T09:03:23.953Z,9.53
2023-03-07T09:09:27.717Z,9.80
2023-03-07T09:15:29.601Z,9.63
2023-03-07T09:21:31.962Z,11.30
2023-03-07T09:27:33.905Z,11.50
2023-03-07T09:33:36.376Z,12.30
2023-03-07T09:39:38.429Z,11.50
2023-03-07T09:46:10.887Z,11.30
2023-03-07T09:52:20.130Z,12.60
2023-03-07T09:58:25.953Z,13.10
2023-03-07T10:05:23.003Z,14.37
2023-03-07T10:12:10.251Z,13.93
2023-03-07T10:18:42.850Z,14.80
2023-03-07T10:24:56.611Z,12.13
2023-03-07T10:31:13.470Z,13.40
2023-03-07T10:37:21.820Z,16.03
2023-03-07T10:43:33.660Z,6.40
2023-03-07T10:49:45.454Z,6.17
2023-03-07T10:55:47.424Z,2.40
2023-03-07T11:01:57.793Z,3.20
2023-03-07T11:08:20.205Z,8.10
2023-03-07T11:14:22.514Z,3.50
2023-03-07T11:20:50.540Z,1.70
2023-03-07T11:26:58.334Z,2.20
2023-03-07T11:33:22.901Z,3.90
2023-03-07T11:39:39.982Z,3.10
2023-03-07T11:46:07.120Z,3.20
2023-03-07T11:52:39.065Z,2.47
2023-03-07T11:58:40.821Z,5.13
2023-03-07T12:05:31.204Z,5.03
2023-03-07T12:11:53.904Z,2.77
2023-03-07T12:18:53.874Z,7.33
2023-03-07T12:25:00.660Z,35.20
2023-03-07T12:31:08.402Z,35.03
2023-03-07T12:37:23.809Z,13.00
2023-03-07T12:43:43.867Z,18.00
2023-03-07T12:50:14.739Z,12.50
2023-03-07T12:56:46.567Z,4.47
2023-03-07T13:03:06.436Z,6.87
2023-03-07T13:09:21.556Z,12.63
2023-03-07T13:15:23.920Z,8.63
2023-03-07T13:21:33.007Z,10.80
2023-03-07T13:27:40.938Z,9.10
2023-03-07T13:33:43.635Z,8.83
2023-03-07T13:40:02.449Z,2.40
2023-03-07T13:46:46.640Z,5.07
2023-03-07T13:52:48.820Z,4.57
2023-03-07T13:59:08.663Z,4.70
2023-03-07T14:05:10.560Z,6.80
2023-03-07T14:11:30.933Z,5.00
2023-03-07T14:17:35.431Z,4.67
2023-03-07T14:24:07.506Z,8.87
2023-03-07T14:30:17.045Z,7.53
2023-03-07T14:36:30.948Z,12.70
2023-03-07T14:42:35.745Z,10.40
2023-03-07T14:49:00.341Z,9.00
2023-03-07T14:55:05.918Z,4.90
2023-03-07T15:01:19.517Z,7.50
2023-03-07T15:07:22.312Z,5.30
2023-03-07T15:13:38.039Z,4.47
2023-03-07T15:20:08.047Z,2.00
2023-03-07T15:26:21.412Z,14.40
2023-03-07T15:32:34.673Z,12.50
2023-03-07T15:38:44.617Z,1.30
2023-03-07T15:44:56.063Z,2.17
2023-03-07T15:51:18.193Z,1.50
2023-03-07T15:57:48.238Z,2.87
2023-03-07T16:03:59.209Z,4.57
2023-03-07T16:10:08.498Z,5.30
2023-03-07T16:24:26.486Z,5.13
2023-03-07T16:30:35.487Z,2.70
2023-03-07T16:36:54.542Z,2.00
2023-03-07T16:49:34.242Z,1.83
2023-03-07T16:55:38.965Z,1.70
2023-03-07T17:01:51.213Z,1.70
2023-03-07T17:08:01.694Z,2.07
2023-03-07T17:14:09.411Z,2.70
2023-03-07T17:20:25.051Z,1.80
2023-03-07T17:26:40.730Z,2.60
2023-03-07T17:32:50.852Z,3.87
2023-03-07T17:38:58.841Z,3.77
2023-03-07T17:45:08.978Z,3.40
2023-03-07T17:51:23.417Z,5.97
2023-03-07T17:57:27.315Z,4.80
2023-03-07T18:03:29.581Z,8.23
2023-03-07T18:09:36.538Z,3.90
2023-03-07T18:15:48.860Z,6.20
2023-03-07T18:22:03.681Z,8.00
2023-03-07T18:28:11.681Z,6.60
2023-03-07T18:34:21.771Z,5.17
2023-03-07T18:40:30.444Z,5.40
2023-03-07T18:46:33.315Z,4.23
2023-03-07T18:52:36.556Z,3.80
2023-03-07T18:58:56.264Z,3.50
2023-03-07T19:04:58.985Z,7.37
2023-03-07T19:11:11.763Z,5.57
2023-03-07T19:17:23.059Z,2.60
2023-03-07T19:23:29.199Z,11.60
2023-03-07T19:29:32.180Z,4.40
2023-03-07T19:35:34.820Z,7.10
2023-03-07T19:41:38.000Z,3.43
2023-03-07T19:47:40.486Z,2.97
2023-03-07T19:53:50.626Z,4.50
2023-03-07T19:59:56.927Z,3.27
2023-03-07T20:05:59.803Z,8.57
2023-03-07T20:12:02.415Z,3.90
2023-03-07T20:18:06.119Z,25.90
2023-03-07T20:24:23.311Z,8.80
2023-03-07T20:30:26.135Z,13.70
2023-03-07T20:36:34.281Z,9.27
2023-03-07T20:42:36.949Z,4.37
2023-03-07T20:48:40.137Z,2.63
2023-03-07T20:54:46.153Z,3.93
2023-03-07T21:00:53.839Z,4.60
2023-03-07T21:06:59.134Z,16.20
2023-03-07T21:13:05.037Z,7.70
2023-03-07T21:19:07.988Z,5.63
2023-03-07T21:25:20.961Z,4.00
2023-03-07T21:31:46.883Z,11.93
2023-03-07T21:37:50.829Z,4.33
2023-03-07T21:44:00.441Z,2.40
2023-03-07T21:50:06.783Z,34.80
2023-03-07T21:56:16.898Z,4.43
2023-03-07T22:02:23.324Z,3.60
2023-03-07T22:08:26.421Z,1.50
2023-03-07T22:14:29.132Z,2.43
2023-03-07T22:20:32.361Z,5.90
2023-03-07T22:26:34.977Z,1.77
2023-03-07T22:38:58.935Z,3.67
2023-03-07T22:45:04.874Z,3.17
2023-03-07T22:51:18.241Z,4.10
2023-03-07T22:57:21.369Z,10.00
2023-03-07T23:03:24.788Z,6.60
2023-03-07T23:09:27.564Z,8.60
2023-03-07T23:15:30.476Z,6.23
2023-03-07T23:21:44.611Z,4.80
2023-03-07T23:27:49.891Z,6.47
2023-03-07T23:34:00.564Z,7.57
2023-03-07T23:40:03.896Z,10.03
2023-03-07T23:46:08.884Z,9.60
2023-03-07T23:52:11.686Z,11.00
2023-03-07T23:58:14.558Z,8.07
